Crawford, West Virginia
Current Conditions -  °F | °C
As of 7:55 PM on Tuesday 21 Oct 2014 (Local Time) from KW22 Reporting Station
Heavy Rain Heavy Rain  
Wind Chill: 41°   Ceiling: 600
Heat Index: 46°   Visibility: 4mi
Dew Point: 46°   Wind: 12mph
Humidity: 100%   Direction: 350°N
Pressure: 29.99"   Gusts: 21mph
Location:  38.87°N, 80.44°W
Report Text: KW22 212355Z AUTO 35010G18KT 4SM +RA FEW001 BKN006 OVC015 08/08 A2999 RMK AO2
Loading
Personal Weather Stations






























Interactive Weather Map
Tropical Storm Tracking
New forecast layout! Learn more

10-Day Weather Forecast

Advertisements
Track Severe Weather on mobile